Time;durP1;ratioP1;P1;durP2;ratioP2;P2;SDS_P1;SDS_P2;PMS_P1;PMS_P2;Temp;Humidity;BMP_temperature;BMP_pressure;BME280_temperature;BME280_humidity;BME280_pressure;Samples;Min_cycle;Max_cycle;Signal;HPM_P1;HPM_P2
2022/08/10 00:00:21;;;;;;;2.60;1.83;;;15.80;99.90;;;;;;5036375;28;20049;-70
2022/08/10 00:02:59;;;;;;;2.40;1.88;;;15.70;99.90;;;;;;5036665;28;20371;-70
2022/08/10 00:05:26;;;;;;;2.30;1.83;;;15.70;99.90;;;;;;5036794;28;20081;-70
2022/08/10 00:07:52;;;;;;;3.40;1.70;;;15.70;99.90;;;;;;5036221;28;20073;-70
2022/08/10 00:10:20;;;;;;;3.35;1.80;;;15.70;99.90;;;;;;5036195;28;20132;-70
2022/08/10 00:12:46;;;;;;;3.03;1.98;;;15.60;99.90;;;;;;5036106;28;20460;-70
2022/08/10 00:15:16;;;;;;;2.60;1.88;;;15.60;99.90;;;;;;5036054;28;20482;-70
2022/08/10 00:17:41;;;;;;;2.70;1.80;;;15.60;99.90;;;;;;5035987;28;20057;-70
2022/08/10 00:20:08;;;;;;;3.08;2.10;;;15.60;99.90;;;;;;5035946;28;20490;-70
2022/08/10 00:22:34;;;;;;;2.97;1.80;;;15.60;99.90;;;;;;5035971;28;20080;-70
2022/08/10 00:25:00;;;;;;;3.22;2.15;;;15.60;99.90;;;;;;5036621;28;20147;-70
2022/08/10 00:27:27;;;;;;;3.65;2.15;;;15.60;99.90;;;;;;5035929;28;20501;-70
2022/08/10 00:29:53;;;;;;;3.70;2.55;;;15.60;99.90;;;;;;5035412;28;20571;-70
2022/08/10 00:32:19;;;;;;;3.70;2.30;;;15.50;99.90;;;;;;5035599;28;20405;-70
2022/08/10 00:34:45;;;;;;;3.40;2.22;;;15.60;99.90;;;;;;5035736;28;20124;-70
2022/08/10 00:37:13;;;;;;;3.08;2.17;;;15.50;99.90;;;;;;5036505;28;20414;-70
2022/08/10 00:39:39;;;;;;;3.97;2.53;;;15.60;99.90;;;;;;5035563;28;20046;-70
2022/08/10 00:42:07;;;;;;;3.50;2.42;;;15.60;99.90;;;;;;5036372;28;20038;-69
2022/08/10 00:44:38;;;;;;;3.55;2.35;;;15.60;99.90;;;;;;5034684;28;20049;-70
2022/08/10 00:47:04;;;;;;;3.13;2.30;;;15.60;99.90;;;;;;5035540;28;20049;-70
2022/08/10 00:49:30;;;;;;;3.80;2.50;;;15.60;99.90;;;;;;5035484;28;20453;-69
2022/08/10 00:51:56;;;;;;;3.70;2.20;;;15.60;99.90;;;;;;5035315;28;20043;-70
2022/08/10 00:54:22;;;;;;;3.63;2.65;;;15.60;99.90;;;;;;5035799;28;20045;-70
2022/08/10 00:56:48;;;;;;;4.53;2.67;;;15.50;99.90;;;;;;5035663;28;20045;-69
2022/08/10 00:59:14;;;;;;;3.65;2.70;;;15.50;99.90;;;;;;5035819;28;20580;-70
2022/08/10 01:01:40;;;;;;;3.65;2.60;;;15.50;99.90;;;;;;5035287;28;20485;-70
2022/08/10 01:04:06;;;;;;;3.50;2.53;;;15.50;99.90;;;;;;5035300;28;20482;-70
2022/08/10 01:06:40;;;;;;;3.83;2.40;;;15.40;99.90;;;;;;5035157;28;20045;-70
2022/08/10 01:09:12;;;;;;;4.78;2.97;;;15.40;99.90;;;;;;5035133;28;20130;-70
2022/08/10 01:11:46;;;;;;;4.03;2.45;;;15.30;99.90;;;;;;5034963;28;20056;-70
2022/08/10 01:14:29;;;;;;;4.63;2.70;;;15.30;99.90;;;;;;5035744;28;20378;-70
2022/08/10 01:16:58;;;;;;;3.35;2.40;;;15.30;99.90;;;;;;5035520;28;20394;-70
2022/08/10 01:19:49;;;;;;;4.80;3.08;;;15.30;99.90;;;;;;5034922;28;20160;-70
2022/08/10 01:22:42;;;;;;;3.85;2.50;;;15.30;99.90;;;;;;5035332;28;20060;-70
2022/08/10 01:25:37;;;;;;;4.45;2.60;;;15.30;99.90;;;;;;5017602;28;20096;-70
2022/08/10 01:28:42;;;;;;;4.13;2.80;;;15.30;99.90;;;;;;5034143;28;20067;-70
2022/08/10 01:31:14;;;;;;;3.60;2.63;;;15.30;99.90;;;;;;5035112;28;20061;-70
2022/08/10 01:34:03;;;;;;;4.82;3.17;;;15.30;99.90;;;;;;5034603;28;20108;-70
2022/08/10 01:36:39;;;;;;;3.75;2.95;;;15.30;99.90;;;;;;5034120;28;20061;-70
2022/08/10 01:39:08;;;;;;;4.40;3.10;;;15.30;99.90;;;;;;5035078;28;20080;-70
2022/08/10 01:41:39;;;;;;;4.78;3.55;;;15.30;99.90;;;;;;5016956;28;20478;-70
2022/08/10 01:44:10;;;;;;;4.50;3.50;;;15.20;99.90;;;;;;5035037;28;20049;-70
2022/08/10 01:46:39;;;;;;;3.63;2.95;;;15.20;99.90;;;;;;5034723;28;20053;-70
2022/08/10 01:49:11;;;;;;;3.92;2.65;;;15.20;99.90;;;;;;5034344;28;20136;-70
2022/08/10 01:51:45;;;;;;;3.95;3.00;;;15.20;99.90;;;;;;5034544;28;20048;-70
2022/08/10 01:54:13;;;;;;;4.40;3.28;;;15.10;99.90;;;;;;5033920;28;20128;-70
2022/08/10 01:56:44;;;;;;;4.50;3.25;;;15.10;99.90;;;;;;5033665;28;20095;-70
2022/08/10 01:59:24;;;;;;;4.57;3.13;;;15.10;99.90;;;;;;5034269;28;20084;-69
2022/08/10 02:01:54;;;;;;;4.53;2.92;;;15.10;99.90;;;;;;5034676;28;20045;-69
2022/08/10 02:04:22;;;;;;;4.50;3.25;;;15.10;99.90;;;;;;5034438;28;20051;-70
2022/08/10 02:06:50;;;;;;;4.50;3.15;;;15.10;99.90;;;;;;5034034;28;20053;-70
2022/08/10 02:09:29;;;;;;;5.03;3.47;;;15.10;99.90;;;;;;5033986;28;20085;-70
2022/08/10 02:11:59;;;;;;;6.00;3.40;;;15.10;99.90;;;;;;5033581;28;20506;-70
2022/08/10 02:14:30;;;;;;;4.85;3.45;;;15.00;99.90;;;;;;5034734;28;20426;-70
2022/08/10 02:16:57;;;;;;;5.53;3.45;;;15.00;99.90;;;;;;5034386;28;20096;-70
2022/08/10 02:19:25;;;;;;;6.13;3.30;;;15.00;99.90;;;;;;5033751;28;20466;-69
2022/08/10 02:21:53;;;;;;;5.20;3.50;;;15.00;99.90;;;;;;5033773;28;20041;-70
2022/08/10 02:24:20;;;;;;;5.25;3.33;;;15.00;99.90;;;;;;5034261;28;20050;-69
2022/08/10 02:26:48;;;;;;;4.53;3.20;;;14.90;99.90;;;;;;5033925;28;20086;-69
2022/08/10 02:29:16;;;;;;;5.32;3.80;;;14.90;99.90;;;;;;5033506;28;20058;-70
2022/08/10 02:31:43;;;;;;;5.10;3.40;;;14.90;99.90;;;;;;5034056;28;20049;-70
2022/08/10 02:34:11;;;;;;;5.65;3.65;;;14.90;99.90;;;;;;5034030;28;20049;-70
2022/08/10 02:36:42;;;;;;;4.72;3.45;;;14.80;99.90;;;;;;5033549;28;20138;-70
2022/08/10 02:39:08;;;;;;;5.00;3.58;;;14.80;99.90;;;;;;5033596;28;20045;-70
2022/08/10 02:41:51;;;;;;;5.80;3.80;;;14.80;99.90;;;;;;5033913;28;20045;-70
2022/08/10 02:44:49;;;;;;;5.60;3.28;;;14.80;99.90;;;;;;5033712;28;20049;-69
2022/08/10 02:47:27;;;;;;;4.68;3.53;;;14.80;99.90;;;;;;5032502;28;20057;-69
2022/08/10 02:50:21;;;;;;;4.70;3.22;;;14.70;99.90;;;;;;5015978;28;20409;-69
2022/08/10 02:52:53;;;;;;;5.15;3.10;;;14.70;99.90;;;;;;5005345;28;20049;-70
2022/08/10 02:55:42;;;;;;;6.75;3.67;;;14.60;99.90;;;;;;5033373;28;20088;-70
2022/08/10 02:58:12;;;;;;;4.82;3.58;;;14.60;99.90;;;;;;5033298;28;20049;-70
2022/08/10 03:00:45;;;;;;;5.50;3.70;;;14.60;99.90;;;;;;5033788;28;20045;-70
2022/08/10 03:03:18;;;;;;;4.97;3.72;;;14.50;99.90;;;;;;5033301;28;20125;-69
2022/08/10 03:05:46;;;;;;;5.18;3.88;;;14.50;99.90;;;;;;5033636;28;20077;-70
2022/08/10 03:08:17;;;;;;;5.32;3.75;;;14.50;99.90;;;;;;5040528;28;20041;-69
2022/08/10 03:10:44;;;;;;;6.53;4.00;;;14.50;99.90;;;;;;5040244;28;20056;-70
2022/08/10 03:13:11;;;;;;;5.00;3.97;;;14.40;99.90;;;;;;5039706;28;20095;-69
2022/08/10 03:15:39;;;;;;;5.38;3.58;;;14.40;99.90;;;;;;5039714;28;20049;-69
2022/08/10 03:18:07;;;;;;;4.63;3.53;;;14.50;99.90;;;;;;5039382;28;20533;-69
2022/08/10 03:20:41;;;;;;;5.75;3.70;;;14.40;99.90;;;;;;5022153;28;20439;-69
2022/08/10 03:23:13;;;;;;;4.90;3.63;;;14.40;99.90;;;;;;5039948;28;20116;-70
2022/08/10 03:25:42;;;;;;;5.65;3.90;;;14.50;99.90;;;;;;5039986;28;20053;-70
2022/08/10 03:28:09;;;;;;;5.13;3.80;;;14.40;99.90;;;;;;5039454;28;20398;-69
2022/08/10 03:30:36;;;;;;;6.18;3.97;;;14.40;99.90;;;;;;5039609;28;20057;-70
2022/08/10 03:33:03;;;;;;;5.82;3.97;;;14.40;99.90;;;;;;5039605;28;20052;-70
2022/08/10 03:35:29;;;;;;;5.40;3.90;;;14.40;99.90;;;;;;5022801;28;20455;-70
2022/08/10 03:37:55;;;;;;;6.20;4.25;;;14.40;99.90;;;;;;5039471;28;20048;-70
2022/08/10 03:40:21;;;;;;;4.75;3.55;;;14.40;99.90;;;;;;5040020;28;20049;-70
2022/08/10 03:42:49;;;;;;;5.45;4.15;;;14.40;99.90;;;;;;5039126;28;20114;-70
2022/08/10 03:45:16;;;;;;;5.82;4.10;;;14.40;99.90;;;;;;5040166;28;20045;-70
2022/08/10 03:47:43;;;;;;;4.85;3.42;;;14.30;99.90;;;;;;5039448;28;20053;-70
2022/08/10 03:50:11;;;;;;;4.90;3.85;;;14.40;99.90;;;;;;5039439;28;20053;-69
2022/08/10 03:52:37;;;;;;;5.75;4.22;;;14.30;99.90;;;;;;5021541;28;20099;-69
2022/08/10 03:55:04;;;;;;;6.80;4.28;;;14.30;99.90;;;;;;5022141;28;20045;-70
2022/08/10 03:57:30;;;;;;;6.53;4.38;;;14.30;99.90;;;;;;5039373;28;20059;-70
2022/08/10 03:59:56;;;;;;;4.70;3.63;;;14.20;99.90;;;;;;5039550;28;20135;-70
2022/08/10 04:02:23;;;;;;;6.13;4.47;;;14.20;99.90;;;;;;5021586;28;20047;-70
2022/08/10 04:04:49;;;;;;;6.65;4.30;;;14.20;99.90;;;;;;5039725;28;20052;-70
2022/08/10 04:07:14;;;;;;;6.22;4.28;;;14.20;99.90;;;;;;5039286;28;20389;-70
2022/08/10 04:09:40;;;;;;;6.10;4.65;;;14.20;99.90;;;;;;5038188;28;20140;-70
2022/08/10 04:12:06;;;;;;;6.47;4.05;;;14.30;99.90;;;;;;5039494;28;20103;-70
2022/08/10 04:14:32;;;;;;;7.20;4.30;;;14.30;99.90;;;;;;5039807;28;20048;-70
2022/08/10 04:16:57;;;;;;;6.60;4.13;;;14.30;99.90;;;;;;5038737;28;20512;-70
2022/08/10 04:19:24;;;;;;;7.45;4.72;;;14.30;99.90;;;;;;5035351;28;20087;-70
2022/08/10 04:22:10;;;;;;;5.10;3.80;;;14.30;99.90;;;;;;5018225;28;20510;-70
2022/08/10 04:24:38;;;;;;;5.97;3.78;;;14.30;99.90;;;;;;5036602;28;20088;-70
2022/08/10 04:27:04;;;;;;;7.22;4.50;;;14.20;99.90;;;;;;5035885;28;20042;-70
2022/08/10 04:29:30;;;;;;;7.28;4.20;;;14.20;99.90;;;;;;5036170;28;20402;-70
2022/08/10 04:31:55;;;;;;;6.82;3.90;;;14.20;99.90;;;;;;5036035;28;20053;-70
2022/08/10 04:34:21;;;;;;;5.75;4.15;;;14.20;99.90;;;;;;5035462;28;20049;-71
2022/08/10 04:36:51;;;;;;;4.90;3.72;;;14.20;99.90;;;;;;5018300;28;20067;-70
2022/08/10 04:39:17;;;;;;;5.13;3.60;;;14.10;99.90;;;;;;5036128;28;20060;-70
2022/08/10 04:41:43;;;;;;;5.53;3.95;;;14.20;99.90;;;;;;5035612;28;20045;-70
2022/08/10 04:44:08;;;;;;;5.68;3.92;;;14.20;99.90;;;;;;5035615;28;20107;-70
2022/08/10 04:46:34;;;;;;;6.05;4.10;;;14.10;99.90;;;;;;5035885;28;20050;-70
2022/08/10 04:49:00;;;;;;;5.43;3.35;;;14.10;99.90;;;;;;5035531;28;20417;-70
2022/08/10 04:51:26;;;;;;;5.65;4.03;;;14.20;99.90;;;;;;5017683;28;20045;-70
2022/08/10 04:53:52;;;;;;;6.07;4.15;;;14.20;99.90;;;;;;5035350;28;20045;-70
2022/08/10 04:56:17;;;;;;;6.28;4.40;;;14.20;99.90;;;;;;5035109;28;20128;-70
2022/08/10 04:58:43;;;;;;;5.90;4.30;;;14.20;99.90;;;;;;5035342;28;20160;-70
2022/08/10 05:01:09;;;;;;;5.00;3.90;;;14.20;99.90;;;;;;5035007;28;20057;-70
2022/08/10 05:03:35;;;;;;;6.45;4.10;;;14.20;99.90;;;;;;5035969;28;20190;-70
2022/08/10 05:06:00;;;;;;;5.22;4.05;;;14.20;99.90;;;;;;5035707;28;20052;-70
2022/08/10 05:08:26;;;;;;;5.60;4.03;;;14.20;99.90;;;;;;5035299;28;20049;-70
2022/08/10 05:10:52;;;;;;;5.93;4.32;;;14.30;99.90;;;;;;5035026;28;20049;-70
2022/08/10 05:13:18;;;;;;;6.32;4.30;;;14.30;99.90;;;;;;5001074;28;20041;-70
2022/08/10 05:15:44;;;;;;;6.20;4.13;;;14.30;99.90;;;;;;5035094;28;20124;-70
2022/08/10 05:18:10;;;;;;;5.68;3.97;;;14.40;99.90;;;;;;5034949;28;20089;-70
2022/08/10 05:20:37;;;;;;;5.82;4.50;;;14.50;99.90;;;;;;5034652;28;20510;-70
2022/08/10 05:23:03;;;;;;;7.28;4.82;;;14.60;99.90;;;;;;5034855;28;20081;-70
2022/08/10 05:25:29;;;;;;;6.13;4.20;;;14.70;99.90;;;;;;5034789;28;20092;-70
2022/08/10 05:27:54;;;;;;;6.00;4.13;;;14.80;99.90;;;;;;5034797;28;20060;-70
2022/08/10 05:30:21;;;;;;;6.05;3.83;;;14.90;99.90;;;;;;5034502;28;20065;-70
2022/08/10 05:32:48;;;;;;;6.88;4.57;;;15.00;99.90;;;;;;5034603;28;20573;-70
2022/08/10 05:35:13;;;;;;;6.07;4.03;;;15.10;99.90;;;;;;5034679;28;20126;-70
2022/08/10 05:37:40;;;;;;;8.52;4.60;;;15.10;99.90;;;;;;5034555;28;20494;-70
2022/08/10 05:40:07;;;;;;;6.38;4.20;;;15.20;99.90;;;;;;5034782;28;20045;-70
2022/08/10 05:42:34;;;;;;;6.68;4.80;;;15.30;99.90;;;;;;5035083;28;20483;-70
2022/08/10 05:45:00;;;;;;;6.72;4.40;;;15.30;99.90;;;;;;5035262;28;20075;-70
2022/08/10 05:47:26;;;;;;;6.00;4.40;;;15.40;99.90;;;;;;5034900;28;20041;-70
2022/08/10 05:49:52;;;;;;;7.32;4.38;;;15.40;99.90;;;;;;5035059;28;20056;-70
2022/08/10 05:52:18;;;;;;;7.32;4.10;;;15.50;99.90;;;;;;5034263;28;20125;-70
2022/08/10 05:54:45;;;;;;;6.40;4.40;;;15.50;99.90;;;;;;5034776;28;20045;-70
2022/08/10 05:57:12;;;;;;;7.03;4.72;;;15.50;99.90;;;;;;5034306;28;20128;-70
2022/08/10 05:59:45;;;;;;;5.53;4.10;;;15.50;99.90;;;;;;5016594;28;20045;-70
2022/08/10 06:02:19;;;;;;;6.90;4.95;;;15.60;99.90;;;;;;5034658;28;20038;-70
2022/08/10 06:04:46;;;;;;;5.93;4.47;;;15.70;99.90;;;;;;5034169;28;20045;-70
2022/08/10 06:07:14;;;;;;;6.45;4.97;;;15.70;99.90;;;;;;5033986;28;20053;-70
2022/08/10 06:09:44;;;;;;;6.85;4.60;;;15.70;99.90;;;;;;5033993;28;20132;-70
2022/08/10 06:12:12;;;;;;;7.97;4.82;;;15.80;99.90;;;;;;5033811;28;20049;-71
2022/08/10 06:17:24;;;;;;;6.35;4.75;;;15.90;99.90;;;;;;5033811;28;20112;-64
2022/08/10 06:19:51;;;;;;;5.95;4.45;;;16.00;99.90;;;;;;5034556;28;20045;-64
2022/08/10 06:22:18;;;;;;;5.95;4.57;;;16.10;99.90;;;;;;5033784;28;20133;-64
2022/08/10 06:24:45;;;;;;;6.50;4.72;;;16.10;99.90;;;;;;5033732;28;20107;-64
2022/08/10 06:27:12;;;;;;;6.40;4.22;;;16.20;99.90;;;;;;5033676;28;20046;-64
2022/08/10 06:29:41;;;;;;;5.43;4.25;;;16.30;99.90;;;;;;5033514;28;20054;-64
2022/08/10 06:32:10;;;;;;;6.55;4.68;;;16.50;99.90;;;;;;5034016;28;20049;-65
2022/08/10 06:34:42;;;;;;;6.22;4.65;;;16.60;99.90;;;;;;5033527;28;20042;-65
2022/08/10 06:37:09;;;;;;;7.38;3.83;;;16.70;99.90;;;;;;5033555;28;20061;-65
2022/08/10 06:39:35;;;;;;;5.43;3.92;;;16.80;99.90;;;;;;5034034;28;20053;-65
2022/08/10 06:42:16;;;;;;;6.80;4.50;;;16.90;99.90;;;;;;5033185;28;20052;-65
2022/08/10 06:45:02;;;;;;;6.22;4.10;;;17.00;99.90;;;;;;5033596;28;20056;-65
2022/08/10 06:47:47;;;;;;;5.60;4.30;;;17.10;99.90;;;;;;5034145;28;20092;-65
2022/08/10 06:50:28;;;;;;;5.00;3.70;;;17.30;99.90;;;;;;5033890;28;20094;-65
2022/08/10 06:52:55;;;;;;;5.95;3.83;;;17.40;99.90;;;;;;5033875;28;20068;-65
2022/08/10 06:55:23;;;;;;;6.38;4.40;;;17.50;99.90;;;;;;5033324;28;20061;-65
2022/08/10 06:57:51;;;;;;;5.22;3.53;;;17.60;99.90;;;;;;5032992;28;20498;-64
2022/08/10 07:00:18;;;;;;;5.32;3.97;;;17.70;99.90;;;;;;5033232;28;20076;-64
2022/08/10 07:02:53;;;;;;;4.35;3.30;;;17.70;99.90;;;;;;5033210;28;20489;-65
2022/08/10 07:05:22;;;;;;;5.17;3.50;;;17.80;99.90;;;;;;5015557;28;20049;-65
2022/08/10 07:07:51;;;;;;;6.20;4.20;;;18.00;99.90;;;;;;5033211;28;20052;-65
2022/08/10 07:10:19;;;;;;;4.50;3.55;;;18.10;99.90;;;;;;5033207;28;20041;-64
2022/08/10 07:12:47;;;;;;;4.40;3.45;;;18.10;99.90;;;;;;5033125;28;20430;-65
2022/08/10 07:15:16;;;;;;;5.50;3.80;;;18.20;99.90;;;;;;5033171;28;20041;-65
2022/08/10 07:17:43;;;;;;;6.18;3.80;;;18.20;99.90;;;;;;5032956;28;20056;-65
2022/08/10 07:20:13;;;;;;;5.22;3.90;;;18.40;99.90;;;;;;5033031;28;20467;-65
2022/08/10 07:22:40;;;;;;;5.32;3.33;;;18.50;99.90;;;;;;5032017;28;20052;-65
2022/08/10 07:25:07;;;;;;;4.85;3.22;;;18.50;99.90;;;;;;5015778;28;20049;-66
2022/08/10 07:27:34;;;;;;;4.50;3.28;;;18.60;99.90;;;;;;5016264;28;20060;-64
2022/08/10 07:30:01;;;;;;;5.55;3.28;;;18.70;99.90;;;;;;5032774;28;20061;-65
2022/08/10 07:32:27;;;;;;;4.82;3.45;;;18.70;99.90;;;;;;5032713;28;20128;-65
2022/08/10 07:34:55;;;;;;;5.63;3.30;;;18.90;99.90;;;;;;5033449;28;20045;-65
2022/08/10 07:37:23;;;;;;;7.82;3.47;;;18.90;99.90;;;;;;5033331;28;20056;-65
2022/08/10 07:39:52;;;;;;;5.40;3.15;;;19.00;99.90;;;;;;5032837;28;20049;-65
2022/08/10 07:42:23;;;;;;;4.20;2.97;;;19.00;99.90;;;;;;5032761;28;20046;-65
2022/08/10 07:44:49;;;;;;;4.43;3.20;;;19.10;99.90;;;;;;5032431;28;20046;-65
2022/08/10 07:47:41;;;;;;;6.32;2.67;;;19.20;99.90;;;;;;5032816;28;20053;-65
2022/08/10 07:50:09;;;;;;;4.03;3.35;;;19.30;99.90;;;;;;5033327;28;20050;-66
2022/08/10 07:52:37;;;;;;;4.28;3.13;;;19.40;99.90;;;;;;5032567;28;20049;-66
2022/08/10 07:55:05;;;;;;;6.32;3.25;;;19.50;99.90;;;;;;5036287;28;20054;-66
2022/08/10 07:57:35;;;;;;;3.80;2.80;;;19.70;99.90;;;;;;5036302;28;20096;-65
2022/08/10 08:00:04;;;;;;;3.50;2.67;;;19.80;99.90;;;;;;5036636;28;20107;-65
2022/08/10 08:02:38;;;;;;;4.43;3.00;;;19.90;99.90;;;;;;5036350;28;20087;-66
2022/08/10 08:05:07;;;;;;;4.75;3.20;;;20.00;99.90;;;;;;5036254;28;20493;-65
2022/08/10 08:07:35;;;;;;;3.42;2.72;;;20.00;99.90;;;;;;5036712;28;20056;-65
2022/08/10 08:10:03;;;;;;;3.92;2.60;;;20.00;99.90;;;;;;5036565;28;20087;-65
2022/08/10 08:12:31;;;;;;;4.80;2.55;;;20.10;99.90;;;;;;5034750;28;20132;-65
2022/08/10 08:14:59;;;;;;;3.88;2.70;;;20.20;99.90;;;;;;5036108;28;20042;-65
2022/08/10 08:17:25;;;;;;;4.57;2.47;;;20.30;99.90;;;;;;5036037;28;20057;-65
2022/08/10 08:19:54;;;;;;;4.55;2.55;;;20.50;99.90;;;;;;5035680;28;20406;-64
2022/08/10 08:22:22;;;;;;;3.60;2.22;;;20.50;99.90;;;;;;5035914;28;20095;-64
2022/08/10 08:24:49;;;;;;;3.58;2.20;;;20.60;99.90;;;;;;5035785;28;20054;-65
2022/08/10 08:27:18;;;;;;;3.72;2.53;;;20.70;99.90;;;;;;5035870;28;20064;-65
2022/08/10 08:29:48;;;;;;;3.83;2.10;;;20.80;99.90;;;;;;5035664;28;20478;-65
2022/08/10 08:32:18;;;;;;;3.08;2.40;;;20.90;99.90;;;;;;5035396;28;20045;-65
2022/08/10 08:34:46;;;;;;;3.63;2.33;;;20.90;99.90;;;;;;5035711;28;20057;-65
2022/08/10 08:37:15;;;;;;;2.90;2.10;;;20.90;99.90;;;;;;5018019;28;20394;-64
2022/08/10 08:39:42;;;;;;;2.75;2.22;;;21.00;99.90;;;;;;5035630;28;20053;-65
2022/08/10 08:42:45;;;;;;;3.92;2.38;;;21.10;99.90;;;;;;5035771;28;20055;-65
2022/08/10 08:45:33;;;;;;;3.20;2.20;;;21.20;99.90;;;;;;5035583;28;20053;-65
2022/08/10 08:48:36;;;;;;;3.58;2.03;;;21.30;99.90;;;;;;5036031;28;20042;-65
2022/08/10 08:51:13;;;;;;;4.00;2.05;;;21.50;99.90;;;;;;5035869;28;20132;-65
2022/08/10 08:53:57;;;;;;;2.80;2.08;;;21.70;99.90;;;;;;5035918;28;20156;-65
2022/08/10 08:56:48;;;;;;;3.88;2.00;;;21.80;99.90;;;;;;5035501;28;20137;-65
2022/08/10 08:59:36;;;;;;;3.65;1.92;;;21.90;99.90;;;;;;5035190;28;20502;-65
2022/08/10 09:02:17;;;;;;;2.45;1.88;;;22.10;99.90;;;;;;5035172;28;20041;-65
2022/08/10 09:04:54;;;;;;;3.95;2.15;;;22.20;99.90;;;;;;5035251;28;20085;-65
2022/08/10 09:07:38;;;;;;;3.80;1.80;;;22.30;99.90;;;;;;5035542;28;20067;-65
2022/08/10 09:10:34;;;;;;;3.83;1.63;;;22.40;99.90;;;;;;5034954;28;20049;-65
2022/08/10 09:13:25;;;;;;;3.90;2.10;;;22.50;99.90;;;;;;5017593;28;20045;-66
2022/08/10 09:16:46;;;;;;;3.92;2.05;;;22.70;99.90;;;;;;5035566;28;20092;-65
2022/08/10 09:19:25;;;;;;;2.55;1.60;;;22.80;99.90;;;;;;5017130;28;20439;-66
2022/08/10 09:22:02;;;;;;;3.28;1.90;;;22.90;99.90;;;;;;5034813;28;20049;-65
2022/08/10 09:24:56;;;;;;;3.20;2.00;;;23.00;99.90;;;;;;5034498;28;20092;-65
2022/08/10 09:27:31;;;;;;;2.45;1.67;;;23.10;99.90;;;;;;5035150;28;20383;-65
2022/08/10 09:30:02;;;;;;;3.20;1.60;;;23.10;99.90;;;;;;5034816;28;20485;-65
2022/08/10 09:32:48;;;;;;;5.43;1.80;;;23.30;99.90;;;;;;5034387;28;20049;-65
2022/08/10 09:35:20;;;;;;;2.23;1.60;;;23.40;99.90;;;;;;5034625;28;20085;-65
2022/08/10 09:38:12;;;;;;;2.67;1.80;;;23.60;99.90;;;;;;5035081;28;20128;-65
2022/08/10 09:40:47;;;;;;;2.95;1.80;;;23.70;99.90;;;;;;5034821;28;20045;-65
2022/08/10 09:43:45;;;;;;;3.05;1.83;;;23.70;99.90;;;;;;5034763;28;20049;-66
2022/08/10 09:46:32;;;;;;;3.05;1.67;;;23.80;99.90;;;;;;5034046;28;20475;-65
2022/08/10 09:49:02;;;;;;;;;;;23.90;99.90;;;;;;5035115;28;20081;-66
2022/08/10 09:51:38;;;;;;;2.63;1.60;;;23.90;99.90;;;;;;5034779;28;20277;-66
2022/08/10 09:54:16;;;;;;;3.65;1.50;;;23.90;99.90;;;;;;5034192;28;20171;-65
2022/08/10 09:56:55;;;;;;;3.10;1.52;;;24.00;99.90;;;;;;5034799;28;20083;-65
2022/08/10 09:59:48;;;;;;;3.50;1.88;;;24.10;99.90;;;;;;5000712;28;20045;-65
2022/08/10 10:02:26;;;;;;;3.55;1.70;;;24.20;99.90;;;;;;5034023;28;20414;-65
2022/08/10 10:04:58;;;;;;;2.58;1.55;;;24.20;99.90;;;;;;5017452;28;20049;-65
2022/08/10 10:07:28;;;;;;;2.88;1.38;;;24.40;99.90;;;;;;5034140;28;20102;-66
2022/08/10 10:10:10;;;;;;;2.85;1.40;;;24.50;99.90;;;;;;5016257;28;20067;-65
2022/08/10 10:12:57;;;;;;;2.58;1.77;;;24.50;99.90;;;;;;5033807;28;20037;-65
2022/08/10 10:16:00;;;;;;;2.33;1.45;;;24.60;99.90;;;;;;5033493;28;20070;-65
2022/08/10 10:18:52;;;;;;;2.63;1.40;;;24.50;99.90;;;;;;5033793;28;20077;-65
2022/08/10 10:21:29;;;;;;;2.45;1.38;;;24.60;99.90;;;;;;5033732;28;20041;-66
2022/08/10 10:24:10;;;;;;;3.25;1.40;;;24.60;99.90;;;;;;5034021;28;20052;-65
2022/08/10 10:27:10;;;;;;;2.42;1.20;;;24.60;99.90;;;;;;5016792;28;20053;-66
2022/08/10 10:29:59;;;;;;;2.78;1.40;;;24.70;99.90;;;;;;5016240;28;20183;-65
2022/08/10 10:32:36;;;;;;;2.83;1.42;;;24.60;99.90;;;;;;5033730;28;20046;-65
2022/08/10 10:35:24;;;;;;;2.08;1.10;;;24.70;99.90;;;;;;5033517;28;20049;-66
2022/08/10 10:37:53;;;;;;;3.38;1.20;;;24.70;99.90;;;;;;5002342;28;20120;-65
2022/08/10 10:40:21;;;;;;;1.80;1.00;;;24.80;99.90;;;;;;5033560;28;20049;-66
2022/08/10 10:43:04;;;;;;;1.45;0.75;;;24.80;99.90;;;;;;5033708;28;20538;-65
2022/08/10 10:46:21;;;;;;;2.80;1.20;;;24.80;99.90;;;;;;5034106;28;20602;-65
2022/08/10 10:49:02;;;;;;;;;;;24.90;99.90;;;;;;5016915;28;20065;-65
2022/08/10 10:51:36;;;;;;;1.88;0.80;;;25.00;99.90;;;;;;5033554;28;19921;-65
2022/08/10 10:54:13;;;;;;;2.50;1.00;;;25.00;99.90;;;;;;5033915;28;20045;-65
2022/08/10 10:56:54;;;;;;;1.70;0.80;;;25.00;99.90;;;;;;5033310;28;20397;-65
2022/08/10 10:59:47;;;;;;;2.90;0.90;;;24.90;99.90;;;;;;5033249;28;20053;-65
2022/08/10 11:02:39;;;;;;;2.30;1.15;;;24.90;99.90;;;;;;5033170;28;20080;-65
2022/08/10 11:05:19;;;;;;;1.60;1.00;;;25.10;99.90;;;;;;5033453;28;20085;-65
2022/08/10 11:08:11;;;;;;;1.83;0.98;;;25.10;99.90;;;;;;5033103;28;20050;-65
2022/08/10 11:10:44;;;;;;;2.03;1.20;;;25.10;99.90;;;;;;5021789;28;20494;-65
2022/08/10 11:13:24;;;;;;;2.42;0.90;;;25.20;99.90;;;;;;5016148;28;20248;-65
2022/08/10 11:16:12;;;;;;;1.75;1.00;;;25.20;99.90;;;;;;5033278;28;20427;-66
2022/08/10 11:19:02;;;;;;;1.83;0.95;;;25.30;99.90;;;;;;5032821;28;20486;-66
2022/08/10 11:21:33;;;;;;;4.10;1.10;;;25.50;99.90;;;;;;5033019;28;20081;-66
2022/08/10 11:24:19;;;;;;;3.08;1.30;;;25.50;99.90;;;;;;5032983;28;20099;-66
2022/08/10 11:27:00;;;;;;;2.35;1.00;;;25.50;99.90;;;;;;5033888;28;20435;-66
2022/08/10 11:29:32;;;;;;;1.95;1.17;;;25.50;99.90;;;;;;5037301;28;20096;-65
2022/08/10 11:32:03;;;;;;;2.80;1.40;;;25.60;99.90;;;;;;5036905;28;20057;-66
2022/08/10 11:34:45;;;;;;;2.50;1.20;;;25.60;99.90;;;;;;5037572;28;20073;-65
2022/08/10 11:37:37;;;;;;;2.50;1.20;;;25.70;99.90;;;;;;5037005;28;20053;-65
2022/08/10 11:40:23;;;;;;;2.08;1.08;;;25.70;99.90;;;;;;5020201;28;20422;-65
2022/08/10 11:43:09;;;;;;;3.15;1.08;;;25.80;99.90;;;;;;5019379;28;20057;-66
2022/08/10 11:45:36;;;;;;;;;;;25.80;99.90;;;;;;5037181;28;20045;-65
2022/08/10 11:48:34;;;;;;;1.73;0.93;;;25.80;99.90;;;;;;5019164;28;19936;-66
2022/08/10 11:51:06;;;;;;;4.90;1.05;;;25.90;99.90;;;;;;5032494;28;20057;-65
2022/08/10 11:53:44;;;;;;;3.88;1.00;;;26.00;99.90;;;;;;5037258;28;20439;-66
2022/08/10 11:56:15;;;;;;;2.92;1.05;;;26.10;99.90;;;;;;5036899;28;20091;-65
2022/08/10 12:01:30;;;;;;;1.60;1.00;;;26.20;99.90;;;;;;5036420;28;20064;-66
2022/08/10 12:03:59;;;;;;;3.03;0.95;;;26.10;99.90;;;;;;5036025;28;20482;-66
2022/08/10 12:06:27;;;;;;;2.70;0.98;;;26.10;99.90;;;;;;5036188;28;20092;-67
2022/08/10 12:08:54;;;;;;;1.92;1.00;;;26.10;99.90;;;;;;5036157;28;20088;-67
2022/08/10 12:11:28;;;;;;;2.63;0.90;;;26.10;99.90;;;;;;5036063;28;20110;-65
2022/08/10 12:14:03;;;;;;;2.08;1.00;;;26.10;99.90;;;;;;5036055;28;20045;-67
2022/08/10 12:16:33;;;;;;;1.95;0.88;;;26.10;99.90;;;;;;5036685;28;20067;-65
2022/08/10 12:19:01;;;;;;;2.25;0.90;;;26.10;99.90;;;;;;5036482;28;20398;-66
2022/08/10 12:21:44;;;;;;;2.45;0.98;;;26.20;99.90;;;;;;5035973;28;20045;-66
2022/08/10 12:24:31;;;;;;;1.60;0.90;;;26.30;99.90;;;;;;5036590;28;20124;-66
2022/08/10 12:27:41;;;;;;;1.50;0.90;;;26.30;99.90;;;;;;5035744;28;20103;-65
2022/08/10 12:30:09;;;;;;;2.10;1.05;;;26.40;99.90;;;;;;5018246;28;20133;-65
2022/08/10 12:32:55;;;;;;;1.75;0.85;;;26.40;99.90;;;;;;5036256;28;20049;-66
2022/08/10 12:35:36;;;;;;;1.85;0.93;;;26.40;99.90;;;;;;5018696;28;20053;-66
2022/08/10 12:38:20;;;;;;;1.70;0.98;;;26.40;99.90;;;;;;5035493;28;20049;-65
2022/08/10 12:40:55;;;;;;;2.00;1.10;;;26.40;99.90;;;;;;5034960;28;20048;-66
2022/08/10 12:43:29;;;;;;;4.37;1.10;;;26.30;99.90;;;;;;5036244;28;20045;-65
2022/08/10 12:46:13;;;;;;;1.60;1.07;;;26.20;99.90;;;;;;5035991;28;20337;-67
2022/08/10 12:48:53;;;;;;;2.10;1.10;;;26.10;99.90;;;;;;5017682;28;20299;-66
2022/08/10 12:51:30;;;;;;;2.65;1.27;;;26.10;99.90;;;;;;5035887;28;20484;-66
2022/08/10 12:54:18;;;;;;;2.85;0.98;;;26.20;99.90;;;;;;5035339;28;20085;-65
2022/08/10 12:56:51;;;;;;;2.25;1.23;;;26.30;99.90;;;;;;5035838;28;20397;-66
2022/08/10 12:59:18;;;;;;;2.42;1.02;;;26.30;99.90;;;;;;5035246;28;20068;-66
2022/08/10 13:01:50;;;;;;;2.05;1.15;;;26.40;99.90;;;;;;5035169;28;20445;-65
2022/08/10 13:04:23;;;;;;;2.90;0.98;;;26.60;99.90;;;;;;5035140;28;20041;-65
2022/08/10 13:06:50;;;;;;;2.97;1.00;;;26.50;99.90;;;;;;5035577;28;20057;-66
2022/08/10 13:09:23;;;;;;;1.70;0.90;;;26.50;99.90;;;;;;5035104;28;20164;-66
2022/08/10 13:11:53;;;;;;;2.22;1.20;;;26.50;99.90;;;;;;5035129;28;20050;-66
2022/08/10 13:14:44;;;;;;;3.17;0.95;;;26.50;99.90;;;;;;5034874;28;20463;-67
2022/08/10 13:17:11;;;;;;;2.78;1.00;;;26.60;99.90;;;;;;5026029;28;20592;-66
2022/08/10 13:19:41;;;;;;;2.17;1.20;;;26.60;99.90;;;;;;5035380;28;20089;-66
2022/08/10 13:22:08;;;;;;;2.70;1.00;;;26.70;99.90;;;;;;5035494;28;20336;-67
2022/08/10 13:24:41;;;;;;;4.63;1.17;;;26.60;99.90;;;;;;5034743;28;20068;-66